createdAt,value
2023-05-07T00:01:54.340Z,3.67
2023-05-07T00:04:22.718Z,4.00
2023-05-07T00:06:50.928Z,4.13
2023-05-07T00:09:19.068Z,4.05
2023-05-07T00:11:47.266Z,3.40
2023-05-07T00:14:15.593Z,4.30
2023-05-07T00:16:45.181Z,3.55
2023-05-07T00:19:13.629Z,3.97
2023-05-07T00:21:41.988Z,3.38
2023-05-07T00:24:10.262Z,3.60
2023-05-07T00:26:38.442Z,3.55
2023-05-07T00:29:06.770Z,4.25
2023-05-07T00:31:34.982Z,4.03
2023-05-07T00:34:04.569Z,4.20
2023-05-07T00:36:32.754Z,3.65
2023-05-07T00:39:04.325Z,3.90
2023-05-07T00:44:03.593Z,4.53
2023-05-07T00:46:33.993Z,3.50
2023-05-07T00:49:03.007Z,3.45
2023-05-07T00:51:32.706Z,3.30
2023-05-07T00:54:04.250Z,3.05
2023-05-07T00:59:00.595Z,3.60
2023-05-07T01:01:29.021Z,3.38
2023-05-07T01:03:57.446Z,4.35
2023-05-07T01:06:28.916Z,4.65
2023-05-07T01:08:59.221Z,3.55
2023-05-07T01:11:28.144Z,2.83
2023-05-07T01:13:56.475Z,3.20
2023-05-07T01:16:24.712Z,3.65
2023-05-07T01:18:52.904Z,3.30
2023-05-07T01:21:27.638Z,3.20
2023-05-07T01:23:57.814Z,3.25
2023-05-07T01:26:25.980Z,3.55
2023-05-07T01:28:54.178Z,3.03
2023-05-07T01:31:22.992Z,2.33
2023-05-07T01:33:52.318Z,2.95
2023-05-07T01:36:24.032Z,3.15
2023-05-07T01:38:52.978Z,2.45
2023-05-07T01:41:23.795Z,2.05
2023-05-07T01:43:54.097Z,2.60
2023-05-07T01:46:23.418Z,2.15
2023-05-07T01:48:53.524Z,2.33
2023-05-07T01:51:23.642Z,2.28
2023-05-07T01:53:52.165Z,3.20
2023-05-07T01:56:21.236Z,2.50
2023-05-07T01:58:52.311Z,2.33
2023-05-07T02:01:20.603Z,2.40
2023-05-07T02:03:49.808Z,2.65
2023-05-07T02:06:18.104Z,2.40
2023-05-07T02:08:46.435Z,2.05
2023-05-07T02:11:14.845Z,2.53
2023-05-07T02:13:43.739Z,2.45
2023-05-07T02:16:15.499Z,1.90
2023-05-07T02:18:43.628Z,1.90
2023-05-07T02:21:11.842Z,1.83
2023-05-07T02:23:40.049Z,1.90
2023-05-07T02:26:08.180Z,1.70
2023-05-07T02:28:37.046Z,1.90
2023-05-07T02:31:05.526Z,2.25
2023-05-07T02:33:36.022Z,2.05
2023-05-07T02:36:11.552Z,2.07
2023-05-07T02:38:40.180Z,2.13
2023-05-07T02:41:08.333Z,2.13
2023-05-07T02:43:36.652Z,1.95
2023-05-07T02:46:05.728Z,2.03
2023-05-07T02:48:35.689Z,1.90
2023-05-07T02:51:04.509Z,1.80
2023-05-07T02:53:32.619Z,1.55
2023-05-07T02:56:02.585Z,1.95
2023-05-07T02:58:30.960Z,2.03
2023-05-07T03:00:59.186Z,1.77
2023-05-07T03:03:27.551Z,2.03
2023-05-07T03:05:57.221Z,1.75
2023-05-07T03:08:27.020Z,2.17
2023-05-07T03:10:55.455Z,1.90
2023-05-07T03:13:23.799Z,2.15
2023-05-07T03:15:52.179Z,2.50
2023-05-07T03:18:20.454Z,2.47
2023-05-07T03:20:48.815Z,2.65
2023-05-07T03:23:18.467Z,2.00
2023-05-07T03:25:46.601Z,2.00
2023-05-07T03:28:14.904Z,2.45
2023-05-07T03:30:43.153Z,1.95
2023-05-07T03:33:11.302Z,2.08
2023-05-07T03:35:39.520Z,2.70
2023-05-07T03:38:08.026Z,2.00
2023-05-07T03:40:37.678Z,1.90
2023-05-07T03:43:05.937Z,3.80
2023-05-07T03:45:34.080Z,2.88
2023-05-07T03:48:02.297Z,2.33
2023-05-07T03:50:30.561Z,3.20
2023-05-07T03:52:58.780Z,3.17
2023-05-07T03:55:27.069Z,3.08
2023-05-07T03:57:57.678Z,3.53
2023-05-07T04:00:25.940Z,2.83
2023-05-07T04:02:54.186Z,2.75
2023-05-07T04:05:22.511Z,2.88
2023-05-07T04:07:50.659Z,2.22
2023-05-07T04:10:18.958Z,2.63
2023-05-07T04:12:47.303Z,3.50
2023-05-07T04:15:17.191Z,2.35
2023-05-07T04:17:45.420Z,2.58
2023-05-07T04:20:19.863Z,2.10
2023-05-07T04:22:48.038Z,2.35
2023-05-07T04:25:16.522Z,2.10
2023-05-07T04:27:44.714Z,2.38
2023-05-07T04:30:14.878Z,2.00
2023-05-07T04:32:45.734Z,2.25
2023-05-07T04:35:14.031Z,2.67
2023-05-07T04:37:42.332Z,2.72
2023-05-07T04:40:11.456Z,2.10
2023-05-07T04:42:39.868Z,2.28
2023-05-07T04:45:09.821Z,3.10
2023-05-07T04:47:38.806Z,2.72
2023-05-07T04:50:10.219Z,3.40
2023-05-07T04:55:07.316Z,2.75
2023-05-07T04:57:35.673Z,2.92
2023-05-07T05:00:05.403Z,3.20
2023-05-07T05:02:33.562Z,2.95
2023-05-07T05:05:02.624Z,2.30
2023-05-07T05:07:32.653Z,2.63
2023-05-07T05:10:00.973Z,2.25
2023-05-07T05:12:29.252Z,2.58
2023-05-07T05:14:57.518Z,2.33
2023-05-07T05:17:25.727Z,2.38
2023-05-07T05:19:53.968Z,2.08
2023-05-07T05:22:22.263Z,2.20
2023-05-07T05:24:51.967Z,2.30
2023-05-07T05:27:20.206Z,2.80
2023-05-07T05:29:48.393Z,2.40
2023-05-07T05:32:16.699Z,2.58
2023-05-07T05:34:45.123Z,2.45
2023-05-07T05:37:13.412Z,1.92
2023-05-07T05:39:41.609Z,2.30
2023-05-07T05:42:11.093Z,1.70
2023-05-07T05:44:39.398Z,2.55
2023-05-07T05:47:07.709Z,1.88
2023-05-07T05:49:36.204Z,2.00
2023-05-07T05:52:04.408Z,2.13
2023-05-07T05:54:32.822Z,2.67
2023-05-07T05:57:01.324Z,2.53
2023-05-07T05:59:31.742Z,3.15
2023-05-07T06:02:00.271Z,3.53
2023-05-07T06:04:28.583Z,3.08
2023-05-07T06:06:57.870Z,3.35
2023-05-07T06:09:26.166Z,2.60
2023-05-07T06:11:54.394Z,2.75
2023-05-07T06:14:22.654Z,2.08
2023-05-07T06:16:52.387Z,3.13
2023-05-07T06:19:24.326Z,2.15
2023-05-07T06:21:52.605Z,1.83
2023-05-07T06:24:20.758Z,1.95
2023-05-07T06:26:48.948Z,1.85
2023-05-07T06:29:17.191Z,2.30
2023-05-07T06:31:45.321Z,3.47
2023-05-07T06:34:16.302Z,2.95
2023-05-07T06:36:44.514Z,2.58
2023-05-07T06:39:13.134Z,2.40
2023-05-07T06:41:41.371Z,2.78
2023-05-07T06:44:09.766Z,1.95
2023-05-07T06:46:38.284Z,2.03
2023-05-07T06:49:06.708Z,2.08
2023-05-07T06:51:36.335Z,1.80
2023-05-07T06:54:05.570Z,1.90
2023-05-07T06:56:34.059Z,1.60
2023-05-07T06:59:02.477Z,1.70
2023-05-07T07:01:30.973Z,2.10
2023-05-07T07:03:59.270Z,1.60
2023-05-07T07:06:28.038Z,2.08
2023-05-07T07:08:57.608Z,1.20
2023-05-07T07:11:26.020Z,1.35
2023-05-07T07:13:55.556Z,2.15
2023-05-07T07:16:24.349Z,1.65
2023-05-07T07:18:53.135Z,1.40
2023-05-07T07:21:21.328Z,1.23
2023-05-07T07:23:49.656Z,1.80
2023-05-07T07:26:19.933Z,1.38
2023-05-07T07:28:48.699Z,1.50
2023-05-07T07:31:16.962Z,2.35
2023-05-07T07:33:45.159Z,1.58
2023-05-07T07:36:13.784Z,1.80
2023-05-07T07:38:42.254Z,1.90
2023-05-07T07:41:10.945Z,1.65
2023-05-07T07:43:40.615Z,1.65
2023-05-07T07:46:09.123Z,1.52
2023-05-07T07:48:37.563Z,1.80
2023-05-07T07:51:06.187Z,1.90
2023-05-07T07:53:34.491Z,1.98
2023-05-07T07:56:05.633Z,1.98
2023-05-07T08:01:03.676Z,3.88
2023-05-07T08:03:33.573Z,5.10
2023-05-07T08:06:01.956Z,3.90
2023-05-07T08:08:30.217Z,4.97
2023-05-07T08:10:58.410Z,3.95
2023-05-07T08:13:26.798Z,4.75
2023-05-07T08:15:55.147Z,5.10
2023-05-07T08:18:25.863Z,3.97
2023-05-07T08:20:54.592Z,3.10
2023-05-07T08:23:22.782Z,2.50
2023-05-07T08:25:52.379Z,2.30
2023-05-07T08:28:20.957Z,2.72
2023-05-07T08:30:49.218Z,3.10
2023-05-07T08:33:17.433Z,2.65
2023-05-07T08:35:47.141Z,2.40
2023-05-07T08:38:15.370Z,2.50
2023-05-07T08:40:43.460Z,2.75
2023-05-07T08:43:15.036Z,2.45
2023-05-07T08:45:43.679Z,2.17
2023-05-07T08:48:19.231Z,2.97
2023-05-07T08:50:48.905Z,2.38
2023-05-07T08:53:18.587Z,2.65
2023-05-07T08:55:48.342Z,2.42
2023-05-07T08:58:16.653Z,2.35
2023-05-07T09:00:44.760Z,2.50
2023-05-07T09:03:14.075Z,2.10
2023-05-07T09:05:42.424Z,2.33
2023-05-07T09:08:12.039Z,2.03
2023-05-07T09:10:40.316Z,2.40
2023-05-07T09:13:08.600Z,2.80
2023-05-07T09:15:36.856Z,2.60
2023-05-07T09:18:05.446Z,2.00
2023-05-07T09:20:34.010Z,2.05
2023-05-07T09:23:02.208Z,2.15
2023-05-07T09:25:33.270Z,2.58
2023-05-07T09:28:02.406Z,2.20
2023-05-07T09:30:31.989Z,2.22
2023-05-07T09:33:01.594Z,2.25
2023-05-07T09:35:30.377Z,1.92
2023-05-07T09:38:03.671Z,1.95
2023-05-07T09:40:33.952Z,1.60
2023-05-07T09:43:12.819Z,1.80
2023-05-07T09:45:41.230Z,2.28
2023-05-07T09:48:10.856Z,2.35
2023-05-07T09:50:50.285Z,2.20
2023-05-07T09:53:19.607Z,3.15
2023-05-07T09:55:49.792Z,2.65
2023-05-07T09:58:19.799Z,1.85
2023-05-07T10:00:48.648Z,1.90
2023-05-07T10:03:18.441Z,1.70
2023-05-07T10:05:48.610Z,1.98
2023-05-07T10:08:18.086Z,2.05
2023-05-07T10:10:48.594Z,2.25
2023-05-07T10:13:17.313Z,1.98
2023-05-07T10:15:45.953Z,1.95
2023-05-07T10:18:15.955Z,2.08
2023-05-07T10:20:48.719Z,2.50
2023-05-07T10:23:20.457Z,2.10
2023-05-07T10:25:51.553Z,1.70
2023-05-07T10:28:23.727Z,2.40
2023-05-07T10:33:32.875Z,1.90
2023-05-07T10:36:05.535Z,2.67
2023-05-07T10:38:34.545Z,2.55
2023-05-07T10:41:06.729Z,2.72
2023-05-07T10:43:43.297Z,2.00
2023-05-07T10:46:17.877Z,2.75
2023-05-07T10:49:12.638Z,2.53
2023-05-07T10:51:41.602Z,2.45
2023-05-07T10:54:26.098Z,2.45
2023-05-07T10:56:56.006Z,2.50
2023-05-07T10:59:48.966Z,2.55
2023-05-07T11:02:17.172Z,2.63
2023-05-07T11:04:45.858Z,3.10
2023-05-07T11:07:31.178Z,2.58
2023-05-07T11:10:05.719Z,2.60
2023-05-07T11:12:55.782Z,2.83
2023-05-07T11:15:39.069Z,2.35
2023-05-07T11:18:08.148Z,3.30
2023-05-07T11:21:04.480Z,3.00
2023-05-07T11:23:57.844Z,3.13
2023-05-07T11:26:27.273Z,3.22
2023-05-07T11:28:58.026Z,3.53
2023-05-07T11:31:29.424Z,4.63
2023-05-07T11:36:27.201Z,3.63
2023-05-07T11:38:55.412Z,5.13
2023-05-07T11:41:23.809Z,4.95
2023-05-07T11:44:01.151Z,6.15
2023-05-07T11:46:30.761Z,5.57
2023-05-07T11:48:59.299Z,4.63
2023-05-07T11:51:31.049Z,4.65
2023-05-07T11:53:59.129Z,5.43
2023-05-07T11:56:27.454Z,5.03
2023-05-07T11:58:56.065Z,3.95
2023-05-07T12:01:25.569Z,3.95
2023-05-07T12:03:53.952Z,3.85
2023-05-07T12:06:22.291Z,3.03
2023-05-07T12:08:50.501Z,2.30
2023-05-07T12:11:24.480Z,2.42
2023-05-07T12:13:52.710Z,1.95
2023-05-07T12:16:21.833Z,2.33
2023-05-07T12:18:53.839Z,2.45
2023-05-07T12:21:22.435Z,2.88
2023-05-07T12:23:50.784Z,2.78
2023-05-07T12:26:19.031Z,2.60
2023-05-07T12:28:48.220Z,2.25
2023-05-07T12:31:17.252Z,2.28
2023-05-07T12:33:45.684Z,2.22
2023-05-07T12:36:15.837Z,2.25
2023-05-07T12:38:43.952Z,1.92
2023-05-07T12:41:13.616Z,2.03
2023-05-07T12:43:41.917Z,2.00
2023-05-07T12:46:10.158Z,1.90
2023-05-07T12:48:39.880Z,2.25
2023-05-07T12:51:08.779Z,1.95
2023-05-07T12:53:43.472Z,1.40
2023-05-07T12:56:11.772Z,1.52
2023-05-07T12:58:39.936Z,1.52
2023-05-07T13:01:11.104Z,1.88
2023-05-07T13:03:40.980Z,1.40
2023-05-07T13:06:13.372Z,1.48
2023-05-07T13:08:44.310Z,1.38
2023-05-07T13:11:13.648Z,1.63
2023-05-07T13:13:43.434Z,1.35
2023-05-07T13:16:13.641Z,1.63
2023-05-07T13:18:45.080Z,1.13
2023-05-07T13:21:14.441Z,2.40
2023-05-07T13:23:44.280Z,2.03
2023-05-07T13:26:25.718Z,1.48
2023-05-07T13:28:55.588Z,1.83
2023-05-07T13:31:23.876Z,1.90
2023-05-07T13:33:52.170Z,2.17
2023-05-07T13:36:20.292Z,2.10
2023-05-07T13:38:49.909Z,1.13
2023-05-07T13:41:18.134Z,3.83
2023-05-07T13:43:46.652Z,1.92
2023-05-07T13:46:14.860Z,1.30
2023-05-07T13:48:43.161Z,1.17
2023-05-07T13:51:11.520Z,1.10
2023-05-07T13:53:39.674Z,0.80
2023-05-07T13:56:09.308Z,1.42
2023-05-07T13:58:42.195Z,1.00
2023-05-07T14:01:16.749Z,1.10
2023-05-07T14:03:45.104Z,0.73
2023-05-07T14:06:13.384Z,0.98
2023-05-07T14:08:41.721Z,2.20
2023-05-07T14:11:11.508Z,2.33
2023-05-07T14:13:39.671Z,1.50
2023-05-07T14:16:08.492Z,1.77
2023-05-07T14:18:38.246Z,1.33
2023-05-07T14:21:10.748Z,1.38
2023-05-07T14:23:38.944Z,1.10
2023-05-07T14:26:07.331Z,1.10
2023-05-07T14:28:36.881Z,0.95
2023-05-07T14:31:05.086Z,0.93
2023-05-07T14:33:33.940Z,0.80
2023-05-07T14:36:02.177Z,0.70
2023-05-07T14:38:30.440Z,0.88
2023-05-07T14:40:58.695Z,0.98
2023-05-07T14:43:26.861Z,1.13
2023-05-07T14:45:56.492Z,0.82
2023-05-07T14:48:24.608Z,1.10
2023-05-07T14:50:52.802Z,2.00
2023-05-07T14:53:21.226Z,2.55
2023-05-07T14:55:49.906Z,2.22
2023-05-07T14:58:18.176Z,2.85
2023-05-07T15:00:46.541Z,3.78
2023-05-07T15:03:16.600Z,2.70
2023-05-07T15:05:44.913Z,2.50
2023-05-07T15:08:13.092Z,2.92
2023-05-07T15:10:42.774Z,3.42
2023-05-07T15:13:14.695Z,2.88
2023-05-07T15:15:44.970Z,3.15
2023-05-07T15:18:13.274Z,3.40
2023-05-07T15:20:43.118Z,3.13
2023-05-07T15:23:13.267Z,2.72
2023-05-07T15:25:41.708Z,2.45
2023-05-07T15:28:09.906Z,3.17
2023-05-07T15:30:38.082Z,2.50
2023-05-07T15:33:06.646Z,4.10
2023-05-07T15:35:35.106Z,2.33
2023-05-07T15:38:05.066Z,2.90
2023-05-07T15:40:35.424Z,2.25
2023-05-07T15:43:03.724Z,2.63
2023-05-07T15:45:32.147Z,1.95
2023-05-07T15:48:00.656Z,1.42
2023-05-07T15:50:29.692Z,1.15
2023-05-07T15:52:58.407Z,1.17
2023-05-07T15:55:28.003Z,1.20
2023-05-07T15:57:56.834Z,1.35
2023-05-07T16:00:28.739Z,1.15
2023-05-07T16:02:57.076Z,1.35
2023-05-07T16:05:25.398Z,1.45
2023-05-07T16:07:53.539Z,1.00
2023-05-07T16:10:21.759Z,1.42
2023-05-07T16:12:51.362Z,1.05
2023-05-07T16:15:19.784Z,1.23
2023-05-07T16:17:49.825Z,1.42
2023-05-07T16:20:20.048Z,1.20
2023-05-07T16:22:48.666Z,1.13
2023-05-07T16:25:16.835Z,1.77
2023-05-07T16:27:45.007Z,1.80
2023-05-07T16:30:14.993Z,1.80
2023-05-07T16:32:43.340Z,1.20
2023-05-07T16:35:12.516Z,1.10
2023-05-07T16:37:42.696Z,1.20
2023-05-07T16:40:12.733Z,1.25
2023-05-07T16:42:41.081Z,1.02
2023-05-07T16:45:10.150Z,1.17
2023-05-07T16:47:39.958Z,0.90
2023-05-07T16:50:08.949Z,0.93
2023-05-07T16:52:37.614Z,1.70
2023-05-07T16:55:06.868Z,2.92
2023-05-07T16:57:35.050Z,2.42
2023-05-07T17:00:07.475Z,2.58
2023-05-07T17:02:36.315Z,3.83
2023-05-07T17:05:07.617Z,4.07
2023-05-07T17:07:36.031Z,2.67
2023-05-07T17:10:05.936Z,3.70
2023-05-07T17:12:36.041Z,3.42
2023-05-07T17:15:04.824Z,3.03
2023-05-07T17:17:33.906Z,4.35
2023-05-07T17:20:02.267Z,3.65
2023-05-07T17:22:31.862Z,3.65
2023-05-07T17:25:01.343Z,3.80
2023-05-07T17:27:29.684Z,3.28
2023-05-07T17:29:57.884Z,3.47
2023-05-07T17:32:26.441Z,3.47
2023-05-07T17:34:54.732Z,3.60
2023-05-07T17:37:23.777Z,4.25
2023-05-07T17:39:53.783Z,3.42
2023-05-07T17:42:21.905Z,3.78
2023-05-07T17:44:51.127Z,3.80
2023-05-07T17:47:19.320Z,4.03
2023-05-07T17:49:47.528Z,1.75
2023-05-07T17:52:15.733Z,2.60
2023-05-07T17:54:43.930Z,1.80
2023-05-07T17:57:13.763Z,1.95
2023-05-07T17:59:42.026Z,1.80
2023-05-07T18:02:10.288Z,1.70
2023-05-07T18:04:38.470Z,2.28
2023-05-07T18:07:06.615Z,1.80
2023-05-07T18:09:35.005Z,2.40
2023-05-07T18:12:03.221Z,1.85
2023-05-07T18:14:32.803Z,1.70
2023-05-07T18:17:00.880Z,2.70
2023-05-07T18:19:29.108Z,1.60
2023-05-07T18:21:57.952Z,2.95
2023-05-07T18:24:27.218Z,2.90
2023-05-07T18:26:55.508Z,3.20
2023-05-07T18:29:24.286Z,4.90
2023-05-07T18:31:53.909Z,2.60
2023-05-07T18:34:22.205Z,4.35
2023-05-07T18:36:50.410Z,2.67
2023-05-07T18:39:18.601Z,1.63
2023-05-07T18:41:48.964Z,2.35
2023-05-07T18:44:17.166Z,2.05
2023-05-07T18:46:47.913Z,1.88
2023-05-07T18:49:17.493Z,1.65
2023-05-07T18:51:46.262Z,2.25
2023-05-07T18:54:14.427Z,1.98
2023-05-07T18:56:42.926Z,1.70
2023-05-07T18:59:11.642Z,1.17
2023-05-07T19:01:39.838Z,1.30
2023-05-07T19:04:08.597Z,1.40
2023-05-07T19:06:38.188Z,1.60
2023-05-07T19:09:06.492Z,1.65
2023-05-07T19:11:34.898Z,1.38
2023-05-07T19:14:04.553Z,1.92
2023-05-07T19:16:33.090Z,1.17
2023-05-07T19:19:01.373Z,1.92
2023-05-07T19:21:29.814Z,2.33
2023-05-07T19:23:59.438Z,1.52
2023-05-07T19:26:27.781Z,1.63
2023-05-07T19:29:12.489Z,1.92
2023-05-07T19:31:45.265Z,1.98
2023-05-07T19:34:14.538Z,2.05
2023-05-07T19:36:42.859Z,1.60
2023-05-07T19:39:13.182Z,2.05
2023-05-07T19:41:42.386Z,2.30
2023-05-07T19:44:11.567Z,2.22
2023-05-07T19:46:44.745Z,1.85
2023-05-07T19:49:13.268Z,1.20
2023-05-07T19:51:41.645Z,1.27
2023-05-07T19:54:10.024Z,1.75
2023-05-07T19:56:40.080Z,1.63
2023-05-07T19:59:08.402Z,1.30
2023-05-07T20:01:36.825Z,1.73
2023-05-07T20:04:05.320Z,1.33
2023-05-07T20:06:33.521Z,1.38
2023-05-07T20:09:01.749Z,1.50
2023-05-07T20:11:29.915Z,1.38
2023-05-07T20:13:59.515Z,1.30
2023-05-07T20:16:27.752Z,1.42
2023-05-07T20:18:55.960Z,1.48
2023-05-07T20:21:24.252Z,1.50
2023-05-07T20:23:52.405Z,1.50
2023-05-07T20:26:21.370Z,1.58
2023-05-07T20:28:49.559Z,1.67
2023-05-07T20:31:20.676Z,1.25
2023-05-07T20:33:50.037Z,1.40
2023-05-07T20:36:18.186Z,1.70
2023-05-07T20:38:46.960Z,1.75
2023-05-07T20:41:15.186Z,1.65
2023-05-07T20:43:43.720Z,1.65
2023-05-07T20:46:12.047Z,2.20
2023-05-07T20:48:41.624Z,1.55
2023-05-07T20:51:10.920Z,1.63
2023-05-07T20:53:40.855Z,1.52
2023-05-07T20:56:09.061Z,1.13
2023-05-07T20:58:37.952Z,2.25
2023-05-07T21:01:07.029Z,1.65
2023-05-07T21:03:35.384Z,2.40
2023-05-07T21:06:05.141Z,2.50
2023-05-07T21:08:33.528Z,3.13
2023-05-07T21:11:01.580Z,2.95
2023-05-07T21:13:29.771Z,2.10
2023-05-07T21:15:58.041Z,1.63
2023-05-07T21:18:26.906Z,1.70
2023-05-07T21:20:55.054Z,2.20
2023-05-07T21:23:24.878Z,2.95
2023-05-07T21:25:53.074Z,1.95
2023-05-07T21:28:21.367Z,2.25
2023-05-07T21:30:51.150Z,2.00
2023-05-07T21:33:19.874Z,1.90
2023-05-07T21:35:48.094Z,2.00
2023-05-07T21:38:16.260Z,1.85
2023-05-07T21:40:46.028Z,1.73
2023-05-07T21:43:14.213Z,1.60
2023-05-07T21:45:42.408Z,1.48
2023-05-07T21:48:10.860Z,1.63
2023-05-07T21:50:39.219Z,1.90
2023-05-07T21:53:07.453Z,1.50
2023-05-07T21:55:35.646Z,1.63
2023-05-07T21:58:06.260Z,2.30
2023-05-07T22:00:34.703Z,2.13
2023-05-07T22:03:03.137Z,3.08
2023-05-07T22:05:31.461Z,3.17
2023-05-07T22:07:59.645Z,2.70
2023-05-07T22:10:27.926Z,2.58
2023-05-07T22:12:56.153Z,2.33
2023-05-07T22:15:25.772Z,2.40
2023-05-07T22:17:53.962Z,1.92
2023-05-07T22:20:22.296Z,2.67
2023-05-07T22:22:52.791Z,2.00
2023-05-07T22:25:22.501Z,2.47
2023-05-07T22:27:52.615Z,2.08
2023-05-07T22:30:23.393Z,2.10
2023-05-07T22:32:54.481Z,2.40
2023-05-07T22:35:25.015Z,2.72
2023-05-07T22:37:55.765Z,3.28
2023-05-07T22:40:25.538Z,3.45
2023-05-07T22:42:53.947Z,2.83
2023-05-07T22:45:25.215Z,3.83
2023-05-07T22:47:55.477Z,3.40
2023-05-07T22:50:23.835Z,3.30
2023-05-07T22:52:55.106Z,2.83
2023-05-07T22:55:23.427Z,3.28
2023-05-07T22:57:51.657Z,3.78
2023-05-07T23:00:20.002Z,2.70
2023-05-07T23:02:48.357Z,2.50
2023-05-07T23:05:18.568Z,1.67
2023-05-07T23:07:46.788Z,1.45
2023-05-07T23:10:15.144Z,1.92
2023-05-07T23:12:44.043Z,1.77
2023-05-07T23:15:13.019Z,1.20
2023-05-07T23:17:41.369Z,0.95
2023-05-07T23:20:10.626Z,0.98
2023-05-07T23:22:40.514Z,0.93
2023-05-07T23:25:09.976Z,0.70
2023-05-07T23:27:38.307Z,0.95
2023-05-07T23:30:07.745Z,0.52
2023-05-07T23:32:35.877Z,0.45
2023-05-07T23:35:04.096Z,0.68
2023-05-07T23:37:32.269Z,0.40
2023-05-07T23:40:01.899Z,0.60
2023-05-07T23:42:30.136Z,0.20
2023-05-07T23:44:58.379Z,0.50
2023-05-07T23:47:27.054Z,0.35
2023-05-07T23:49:55.248Z,0.40
2023-05-07T23:52:23.462Z,0.50
2023-05-07T23:54:51.803Z,0.32
2023-05-07T23:57:21.300Z,0.40
2023-05-07T23:59:49.462Z,0.88
